createdAt,value
2018-12-11T00:01:14.695Z,0.90
2018-12-11T00:03:42.197Z,0.80
2018-12-11T00:06:09.691Z,1.17
2018-12-11T00:08:37.201Z,0.70
2018-12-11T00:11:05.017Z,0.60
2018-12-11T00:13:32.505Z,0.60
2018-12-11T00:16:00.019Z,0.83
2018-12-11T00:18:27.506Z,1.90
2018-12-11T00:20:55.010Z,0.80
2018-12-11T00:23:22.505Z,0.70
2018-12-11T00:25:50.358Z,0.67
2018-12-11T00:28:17.917Z,0.70
2018-12-11T00:30:45.407Z,0.60
2018-12-11T00:33:12.914Z,0.70
2018-12-11T00:35:40.401Z,0.60
2018-12-11T00:38:07.917Z,0.90
2018-12-11T00:40:35.404Z,1.63
2018-12-11T00:43:02.897Z,1.13
2018-12-11T00:45:30.409Z,1.20
2018-12-11T00:47:57.894Z,0.97
2018-12-11T00:50:25.381Z,1.10
2018-12-11T00:52:52.952Z,1.10
2018-12-11T00:55:20.442Z,1.30
2018-12-11T00:57:47.969Z,1.23
2018-12-11T01:00:15.457Z,1.20
2018-12-11T01:02:42.943Z,1.97
2018-12-11T01:05:10.461Z,1.30
2018-12-11T01:07:37.949Z,2.00
2018-12-11T01:10:08.065Z,0.83
2018-12-11T01:12:35.586Z,2.13
2018-12-11T01:15:03.437Z,1.67
2018-12-11T01:17:31.249Z,0.87
2018-12-11T01:19:58.901Z,1.10
2018-12-11T01:22:26.417Z,1.37
2018-12-11T01:24:53.926Z,1.13
2018-12-11T01:27:21.418Z,2.03
2018-12-11T01:29:49.013Z,0.90
2018-12-11T01:32:16.514Z,1.70
2018-12-11T01:34:44.001Z,0.83
2018-12-11T01:37:11.509Z,0.70
2018-12-11T01:39:39.287Z,1.47
2018-12-11T01:42:06.769Z,1.10
2018-12-11T01:44:34.421Z,1.27
2018-12-11T01:47:01.910Z,1.27
2018-12-11T01:49:30.189Z,0.93
2018-12-11T01:51:57.773Z,0.60
2018-12-11T01:54:25.271Z,0.90
2018-12-11T01:56:52.790Z,1.13
2018-12-11T01:59:20.277Z,1.23
2018-12-11T02:01:47.789Z,1.20
2018-12-11T02:04:15.298Z,0.80
2018-12-11T02:06:42.789Z,1.10
2018-12-11T02:09:10.302Z,0.80
2018-12-11T02:11:37.794Z,1.20
2018-12-11T02:14:05.327Z,1.00
2018-12-11T02:16:32.817Z,0.57
2018-12-11T02:19:00.301Z,0.80
2018-12-11T02:21:27.818Z,0.50
2018-12-11T02:23:55.310Z,0.83
2018-12-11T02:26:22.818Z,0.50
2018-12-11T02:28:50.385Z,0.80
2018-12-11T02:31:17.903Z,0.80
2018-12-11T02:33:46.283Z,0.57
2018-12-11T02:36:15.081Z,0.73
2018-12-11T02:38:42.606Z,0.70
2018-12-11T02:41:11.194Z,1.03
2018-12-11T02:43:38.775Z,0.53
2018-12-11T02:46:06.303Z,1.00
2018-12-11T02:48:33.797Z,0.73
2018-12-11T02:51:01.288Z,0.60
2018-12-11T02:53:28.806Z,0.57
2018-12-11T02:55:56.296Z,0.70
2018-12-11T02:58:23.821Z,0.63
2018-12-11T03:00:51.315Z,0.70
2018-12-11T03:03:18.821Z,0.73
2018-12-11T03:05:46.325Z,0.93
2018-12-11T03:08:14.082Z,0.97
2018-12-11T03:10:41.677Z,0.97
2018-12-11T03:13:09.406Z,0.90
2018-12-11T03:15:37.169Z,0.70
2018-12-11T03:18:04.680Z,0.70
2018-12-11T03:20:32.168Z,0.93
2018-12-11T03:22:59.698Z,0.60
2018-12-11T03:25:27.189Z,0.83
2018-12-11T03:27:55.221Z,0.70
2018-12-11T03:30:24.046Z,1.07
2018-12-11T03:32:51.557Z,0.50
2018-12-11T03:35:19.069Z,0.77
2018-12-11T03:37:46.562Z,0.70
2018-12-11T03:40:14.140Z,0.80
2018-12-11T03:42:41.659Z,1.07
2018-12-11T03:45:09.236Z,0.53
2018-12-11T03:47:36.729Z,1.00
2018-12-11T03:50:05.405Z,0.80
2018-12-11T03:52:34.683Z,0.80
2018-12-11T03:55:02.828Z,0.50
2018-12-11T03:57:30.319Z,0.50
2018-12-11T03:59:57.854Z,0.50
2018-12-11T04:02:25.421Z,0.50
2018-12-11T04:04:52.917Z,0.73
2018-12-11T04:07:20.504Z,0.60
2018-12-11T04:09:48.001Z,0.90
2018-12-11T04:12:15.946Z,0.80
2018-12-11T04:14:43.622Z,0.93
2018-12-11T04:17:11.213Z,0.60
2018-12-11T04:19:38.698Z,0.93
2018-12-11T04:22:06.189Z,0.67
2018-12-11T04:24:33.699Z,0.60
2018-12-11T04:27:01.210Z,0.40
2018-12-11T04:29:28.799Z,0.60
2018-12-11T04:31:56.289Z,0.97
2018-12-11T04:34:23.803Z,0.60
2018-12-11T04:36:51.302Z,0.77
2018-12-11T04:39:18.793Z,0.50
2018-12-11T04:41:46.310Z,0.90
2018-12-11T04:44:14.033Z,1.00
2018-12-11T04:46:41.520Z,0.80
2018-12-11T04:49:09.093Z,0.80
2018-12-11T04:51:36.585Z,1.03
2018-12-11T04:54:04.350Z,0.70
2018-12-11T04:56:32.218Z,0.70
2018-12-11T04:58:59.710Z,0.90
2018-12-11T05:01:27.236Z,0.50
2018-12-11T05:03:55.001Z,0.50
2018-12-11T05:06:22.514Z,0.60
2018-12-11T05:08:49.998Z,0.50
2018-12-11T05:11:17.494Z,0.60
2018-12-11T05:13:45.009Z,0.50
2018-12-11T05:16:12.528Z,1.00
2018-12-11T05:18:40.273Z,0.87
2018-12-11T05:21:08.013Z,0.50
2018-12-11T05:23:35.525Z,0.73
2018-12-11T05:26:03.029Z,0.80
2018-12-11T05:28:30.521Z,0.90
2018-12-11T05:30:58.242Z,1.20
2018-12-11T05:33:25.901Z,0.70
2018-12-11T05:35:53.388Z,0.60
2018-12-11T05:38:20.911Z,0.60
2018-12-11T05:40:48.397Z,0.77
2018-12-11T05:43:15.889Z,0.70
2018-12-11T05:45:43.402Z,0.87
2018-12-11T05:48:11.150Z,1.07
2018-12-11T05:50:38.772Z,1.17
2018-12-11T05:53:06.258Z,0.80
2018-12-11T05:55:34.479Z,1.27
2018-12-11T05:58:02.123Z,0.70
2018-12-11T06:00:29.696Z,0.90
2018-12-11T06:02:57.209Z,0.63
2018-12-11T06:05:24.693Z,1.13
2018-12-11T06:07:52.187Z,1.27
2018-12-11T06:10:19.697Z,0.70
2018-12-11T06:12:47.201Z,0.87
2018-12-11T06:15:14.710Z,0.70
2018-12-11T06:17:42.198Z,1.03
2018-12-11T06:20:09.737Z,0.87
2018-12-11T06:22:37.233Z,0.70
2018-12-11T06:25:04.985Z,0.70
2018-12-11T06:27:33.028Z,0.90
2018-12-11T06:30:00.550Z,0.80
2018-12-11T06:32:28.057Z,0.50
2018-12-11T06:34:55.818Z,0.70
2018-12-11T06:37:23.337Z,1.03
2018-12-11T06:39:50.825Z,1.27
2018-12-11T06:42:18.623Z,2.20
2018-12-11T06:44:46.138Z,1.40
2018-12-11T06:47:13.774Z,1.40
2018-12-11T06:49:41.294Z,0.70
2018-12-11T06:52:08.811Z,1.43
2018-12-11T06:54:36.297Z,0.60
2018-12-11T06:57:03.951Z,1.20
2018-12-11T06:59:31.437Z,1.00
2018-12-11T07:01:58.969Z,0.97
2018-12-11T07:04:26.500Z,0.77
2018-12-11T07:06:54.093Z,0.63
2018-12-11T07:09:21.859Z,0.93
2018-12-11T07:11:49.392Z,2.10
2018-12-11T07:14:17.069Z,0.53
2018-12-11T07:16:44.562Z,0.60
2018-12-11T07:19:12.487Z,1.83
2018-12-11T07:21:39.993Z,2.73
2018-12-11T07:24:07.802Z,0.90
2018-12-11T07:26:35.417Z,1.10
2018-12-11T07:29:03.285Z,0.80
2018-12-11T07:31:30.853Z,1.47
2018-12-11T07:33:58.362Z,1.70
2018-12-11T07:36:25.848Z,1.33
2018-12-11T07:38:53.354Z,0.70
2018-12-11T07:41:20.857Z,1.10
2018-12-11T07:43:48.699Z,0.77
2018-12-11T07:46:16.565Z,1.03
2018-12-11T07:48:44.248Z,0.77
2018-12-11T07:51:12.014Z,1.10
2018-12-11T07:53:39.553Z,1.67
2018-12-11T07:56:07.411Z,0.70
2018-12-11T07:58:34.925Z,0.80
2018-12-11T08:01:02.521Z,1.10
2018-12-11T08:03:30.009Z,1.70
2018-12-11T08:05:57.638Z,1.30
2018-12-11T08:08:25.608Z,0.90
2018-12-11T08:10:53.175Z,0.97
2018-12-11T08:13:20.687Z,0.93
2018-12-11T08:15:48.207Z,1.73
2018-12-11T08:18:15.705Z,0.90
2018-12-11T08:20:43.302Z,1.60
2018-12-11T08:23:11.078Z,1.20
2018-12-11T08:25:38.841Z,1.17
2018-12-11T08:28:06.337Z,1.00
2018-12-11T08:30:33.827Z,1.00
2018-12-11T08:33:01.333Z,1.10
2018-12-11T08:35:28.822Z,0.70
2018-12-11T08:37:56.340Z,2.20
2018-12-11T08:40:23.831Z,2.00
2018-12-11T08:42:51.317Z,0.80
2018-12-11T08:45:18.826Z,1.37
2018-12-11T08:47:46.317Z,1.23
2018-12-11T08:50:13.961Z,1.87
2018-12-11T08:52:41.454Z,3.10
2018-12-11T08:55:09.194Z,1.03
2018-12-11T08:57:37.105Z,1.37
2018-12-11T09:00:07.439Z,1.10
2018-12-11T09:02:35.026Z,1.10
2018-12-11T09:05:02.515Z,1.10
2018-12-11T09:07:30.005Z,1.23
2018-12-11T09:09:57.533Z,0.90
2018-12-11T09:12:25.026Z,0.90
2018-12-11T09:14:52.521Z,2.07
2018-12-11T09:17:20.024Z,0.60
2018-12-11T09:19:47.809Z,1.00
2018-12-11T09:22:15.327Z,0.70
2018-12-11T09:24:42.814Z,0.70
2018-12-11T09:27:10.297Z,0.90
2018-12-11T09:29:38.349Z,0.90
2018-12-11T09:32:06.126Z,0.83
2018-12-11T09:34:33.695Z,1.30
2018-12-11T09:37:01.261Z,1.80
2018-12-11T09:39:28.755Z,1.47
2018-12-11T09:41:56.265Z,1.13
2018-12-11T09:44:23.781Z,0.90
2018-12-11T09:46:51.364Z,0.87
2018-12-11T09:49:18.869Z,1.00
2018-12-11T09:51:46.357Z,1.77
2018-12-11T09:54:13.870Z,0.67
2018-12-11T09:56:41.353Z,1.20
2018-12-11T09:59:08.873Z,1.10
2018-12-11T10:01:36.384Z,1.30
2018-12-11T10:04:03.910Z,1.40
2018-12-11T10:06:31.420Z,1.37
2018-12-11T10:09:01.765Z,1.10
2018-12-11T10:11:29.278Z,0.80
2018-12-11T10:13:56.779Z,0.90
2018-12-11T10:16:24.346Z,1.87
2018-12-11T10:18:51.893Z,0.80
2018-12-11T10:21:19.938Z,1.27
2018-12-11T10:23:47.638Z,0.97
2018-12-11T10:26:15.189Z,1.40
2018-12-11T10:28:42.706Z,1.37
2018-12-11T10:31:10.222Z,0.93
2018-12-11T10:33:37.709Z,1.20
2018-12-11T10:36:05.396Z,1.20
2018-12-11T10:38:32.967Z,1.67
2018-12-11T10:41:00.474Z,0.97
2018-12-11T10:43:27.981Z,1.17
2018-12-11T10:45:55.478Z,1.63
2018-12-11T10:48:23.632Z,1.40
2018-12-11T10:50:51.133Z,0.70
2018-12-11T10:53:18.901Z,0.80
2018-12-11T10:55:46.717Z,1.43
2018-12-11T10:58:14.210Z,1.70
2018-12-11T11:00:46.618Z,0.90
2018-12-11T11:03:14.124Z,1.60
2018-12-11T11:05:41.617Z,1.20
2018-12-11T11:08:09.145Z,0.80
2018-12-11T11:13:10.492Z,1.10
2018-12-11T11:15:39.168Z,1.07
2018-12-11T11:18:06.898Z,1.20
2018-12-11T11:20:34.401Z,1.30
2018-12-11T11:23:01.889Z,1.10
2018-12-11T11:25:29.407Z,1.47
2018-12-11T11:27:56.897Z,1.30
2018-12-11T11:30:24.410Z,1.30
2018-12-11T11:32:51.892Z,0.97
2018-12-11T11:35:19.378Z,1.00
2018-12-11T11:37:46.935Z,0.90
2018-12-11T11:40:15.174Z,1.53
2018-12-11T11:42:42.875Z,1.50
2018-12-11T11:45:11.288Z,0.93
2018-12-11T11:47:38.857Z,1.07
2018-12-11T11:50:09.068Z,0.90
2018-12-11T11:52:36.638Z,1.20
2018-12-11T11:55:05.857Z,0.90
2018-12-11T11:57:33.907Z,1.63
2018-12-11T12:00:01.681Z,0.80
2018-12-11T12:02:33.425Z,1.33
2018-12-11T12:04:59.865Z,0.70
2018-12-11T12:07:27.525Z,1.07
2018-12-11T12:09:55.120Z,0.70
2018-12-11T12:12:24.689Z,0.90
2018-12-11T12:14:52.218Z,1.67
2018-12-11T12:17:19.929Z,1.13
2018-12-11T12:19:47.523Z,1.23
2018-12-11T12:22:15.145Z,1.60
2018-12-11T12:24:42.657Z,0.80
2018-12-11T12:27:10.138Z,0.60
2018-12-11T12:29:37.641Z,1.13
2018-12-11T12:32:05.154Z,1.20
2018-12-11T12:34:32.633Z,0.80
2018-12-11T12:37:00.178Z,0.80
2018-12-11T12:39:27.694Z,1.03
2018-12-11T12:41:55.178Z,0.73
2018-12-11T12:44:22.666Z,0.97
2018-12-11T12:46:50.178Z,1.13
2018-12-11T12:49:17.817Z,1.03
2018-12-11T12:51:45.317Z,0.60
2018-12-11T12:54:12.805Z,1.00
2018-12-11T12:56:40.331Z,0.97
2018-12-11T12:59:08.121Z,0.80
2018-12-11T13:01:35.917Z,0.80
2018-12-11T13:04:03.423Z,1.53
2018-12-11T13:06:30.991Z,1.93
2018-12-11T13:08:58.810Z,0.83
2018-12-11T13:11:26.296Z,1.90
2018-12-11T13:13:53.781Z,1.30
2018-12-11T13:16:21.369Z,1.23
2018-12-11T13:18:48.867Z,1.07
2018-12-11T13:21:16.373Z,1.20
2018-12-11T13:23:43.857Z,1.60
2018-12-11T13:26:11.349Z,1.47
2018-12-11T13:28:38.861Z,0.80
2018-12-11T13:31:06.346Z,1.03
2018-12-11T13:33:33.833Z,1.77
2018-12-11T13:36:01.338Z,1.47
2018-12-11T13:38:28.958Z,1.30
2018-12-11T13:40:56.933Z,1.37
2018-12-11T13:43:24.701Z,2.13
2018-12-11T13:45:52.231Z,0.83
2018-12-11T13:48:23.479Z,1.20
2018-12-11T13:50:49.341Z,1.40
2018-12-11T13:53:16.874Z,1.97
2018-12-11T13:55:44.357Z,1.27
2018-12-11T13:58:12.060Z,1.07
2018-12-11T14:00:39.646Z,1.10
2018-12-11T14:03:07.160Z,0.90
2018-12-11T14:05:34.678Z,1.30
2018-12-11T14:08:02.161Z,1.10
2018-12-11T14:10:29.678Z,0.87
2018-12-11T14:12:57.238Z,1.33
2018-12-11T14:15:24.779Z,1.53
2018-12-11T14:17:52.271Z,1.57
2018-12-11T14:20:19.781Z,1.03
2018-12-11T14:22:47.286Z,1.47
2018-12-11T14:25:15.254Z,0.80
2018-12-11T14:27:42.758Z,1.00
2018-12-11T14:30:11.122Z,0.87
2018-12-11T14:32:38.953Z,1.63
2018-12-11T14:35:06.533Z,1.40
2018-12-11T14:37:34.020Z,1.47
2018-12-11T14:40:02.114Z,1.60
2018-12-11T14:42:29.597Z,0.97
2018-12-11T14:44:57.106Z,0.77
2018-12-11T14:47:24.603Z,1.10
2018-12-11T14:49:52.093Z,1.40
2018-12-11T14:52:19.602Z,0.83
2018-12-11T14:54:47.088Z,0.80
2018-12-11T14:57:14.649Z,1.60
2018-12-11T14:59:42.366Z,1.33
2018-12-11T15:02:09.857Z,1.00
2018-12-11T15:04:37.605Z,1.07
2018-12-11T15:07:05.094Z,0.83
2018-12-11T15:09:47.350Z,0.97
2018-12-11T15:12:14.837Z,1.00
2018-12-11T15:14:42.364Z,1.17
2018-12-11T15:17:09.955Z,1.67
2018-12-11T15:19:37.519Z,1.90
2018-12-11T15:22:05.033Z,0.97
2018-12-11T15:24:32.526Z,2.00
2018-12-11T15:27:00.088Z,1.87
2018-12-11T15:29:27.578Z,1.53
2018-12-11T15:31:55.370Z,1.00
2018-12-11T15:34:22.866Z,0.90
2018-12-11T15:36:50.352Z,1.40
2018-12-11T15:39:17.861Z,1.23
2018-12-11T15:41:45.366Z,1.30
2018-12-11T15:44:12.882Z,1.00
2018-12-11T15:46:40.434Z,1.60
2018-12-11T15:49:08.076Z,1.47
2018-12-11T15:51:35.816Z,2.37
2018-12-11T15:54:03.332Z,2.50
2018-12-11T15:56:38.744Z,3.33
2018-12-11T15:59:06.274Z,3.77
2018-12-11T16:01:33.763Z,2.13
2018-12-11T16:04:01.261Z,1.90
2018-12-11T16:06:28.770Z,1.00
2018-12-11T16:08:56.593Z,1.50
2018-12-11T16:11:24.461Z,1.50
2018-12-11T16:13:52.328Z,2.10
2018-12-11T16:16:19.856Z,1.90
2018-12-11T16:18:47.342Z,1.50
2018-12-11T16:21:15.105Z,1.90
2018-12-11T16:23:42.773Z,1.60
2018-12-11T16:26:10.281Z,2.00
2018-12-11T16:28:38.409Z,1.80
2018-12-11T16:31:05.913Z,1.67
2018-12-11T16:33:33.456Z,1.73
2018-12-11T16:36:00.945Z,1.17
2018-12-11T16:38:28.441Z,2.60
2018-12-11T16:40:56.002Z,2.03
2018-12-11T16:43:23.491Z,1.57
2018-12-11T16:45:50.997Z,1.50
2018-12-11T16:48:18.687Z,2.57
2018-12-11T16:50:46.433Z,1.50
2018-12-11T16:53:14.414Z,1.93
2018-12-11T16:55:41.910Z,1.73
2018-12-11T16:58:09.456Z,4.10
2018-12-11T17:00:38.031Z,2.13
2018-12-11T17:03:05.524Z,1.67
2018-12-11T17:05:33.038Z,1.27
2018-12-11T17:08:00.527Z,2.97
2018-12-11T17:10:28.045Z,3.10
2018-12-11T17:12:55.537Z,3.27
2018-12-11T17:15:23.410Z,1.77
2018-12-11T17:17:50.982Z,4.57
2018-12-11T17:20:18.493Z,3.30
2018-12-11T17:22:45.982Z,5.63
2018-12-11T17:25:13.514Z,4.73
2018-12-11T17:27:41.001Z,3.87
2018-12-11T17:30:08.666Z,5.50
2018-12-11T17:32:36.156Z,4.53
2018-12-11T17:35:04.921Z,2.97
2018-12-11T17:37:32.429Z,5.30
2018-12-11T17:39:59.949Z,4.07
2018-12-11T17:42:27.734Z,1.90
2018-12-11T17:44:55.225Z,3.20
2018-12-11T17:47:22.737Z,2.07
2018-12-11T17:49:50.265Z,2.10
2018-12-11T17:52:17.757Z,4.10
2018-12-11T17:54:45.641Z,3.30
2018-12-11T17:57:13.153Z,3.03
2018-12-11T17:59:40.957Z,3.40
2018-12-11T18:02:10.432Z,2.97
2018-12-11T18:04:37.949Z,1.63
2018-12-11T18:07:05.545Z,3.20
2018-12-11T18:09:33.037Z,3.50
2018-12-11T18:12:00.580Z,3.00
2018-12-11T18:14:28.349Z,2.50
2018-12-11T18:16:55.871Z,3.00
2018-12-11T18:19:23.366Z,2.93
2018-12-11T18:21:50.858Z,3.43
2018-12-11T18:24:18.385Z,3.37
2018-12-11T18:26:45.874Z,2.77
2018-12-11T18:29:14.158Z,3.00
2018-12-11T18:31:41.694Z,3.53
2018-12-11T18:34:11.089Z,4.60
2018-12-11T18:36:38.937Z,4.90
2018-12-11T18:39:07.006Z,3.20
2018-12-11T18:41:34.537Z,2.50
2018-12-11T18:44:02.416Z,2.97
2018-12-11T18:46:29.925Z,3.00
2018-12-11T18:48:57.463Z,1.93
2018-12-11T18:51:24.978Z,2.37
2018-12-11T18:53:52.564Z,3.80
2018-12-11T18:56:20.074Z,2.50
2018-12-11T18:58:47.565Z,2.43
2018-12-11T19:01:15.105Z,3.30
2018-12-11T19:03:49.105Z,2.90
2018-12-11T19:06:12.506Z,3.30
2018-12-11T19:08:40.025Z,3.53
2018-12-11T19:11:07.516Z,4.47
2018-12-11T19:13:35.025Z,2.90
2018-12-11T19:16:02.515Z,2.40
2018-12-11T19:18:30.189Z,2.90
2018-12-11T19:20:57.781Z,3.43
2018-12-11T19:23:27.129Z,3.53
2018-12-11T19:25:54.734Z,1.50
2018-12-11T19:28:22.235Z,2.70
2018-12-11T19:30:49.733Z,2.50
2018-12-11T19:33:17.376Z,2.33
2018-12-11T19:35:44.896Z,2.40
2018-12-11T19:38:12.425Z,3.43
2018-12-11T19:40:41.017Z,2.90
2018-12-11T19:43:09.482Z,2.50
2018-12-11T19:45:37.095Z,2.97
2018-12-11T19:48:04.585Z,3.17
2018-12-11T19:50:32.097Z,4.70
2018-12-11T19:52:59.634Z,2.20
2018-12-11T19:55:27.122Z,3.50
2018-12-11T19:57:59.572Z,2.30
2018-12-11T20:00:24.983Z,2.67
2018-12-11T20:02:52.804Z,2.20
2018-12-11T20:05:20.347Z,1.70
2018-12-11T20:07:47.846Z,2.27
2018-12-11T20:10:16.617Z,2.47
2018-12-11T20:12:44.409Z,4.13
2018-12-11T20:15:12.001Z,2.53
2018-12-11T20:17:39.517Z,2.77
2018-12-11T20:20:07.669Z,2.17
2018-12-11T20:22:35.165Z,1.80
2018-12-11T20:25:02.749Z,1.57
2018-12-11T20:27:30.281Z,3.37
2018-12-11T20:29:57.791Z,1.77
2018-12-11T20:32:25.289Z,1.20
2018-12-11T20:34:52.827Z,2.37
2018-12-11T20:37:20.314Z,2.60
2018-12-11T20:39:48.017Z,3.17
2018-12-11T20:42:15.531Z,3.10
2018-12-11T20:44:43.060Z,3.00
2018-12-11T20:47:10.598Z,3.10
2018-12-11T20:49:38.088Z,3.30
2018-12-11T20:52:05.584Z,2.90
2018-12-11T20:54:33.782Z,2.93
2018-12-11T20:57:01.436Z,3.70
2018-12-11T20:59:28.977Z,2.63
2018-12-11T21:01:56.533Z,3.77
2018-12-11T21:04:24.025Z,2.93
2018-12-11T21:06:51.534Z,4.40
2018-12-11T21:09:19.021Z,3.40
2018-12-11T21:11:46.509Z,2.67
2018-12-11T21:14:14.066Z,4.20
2018-12-11T21:16:41.870Z,2.27
2018-12-11T21:19:09.561Z,2.83
2018-12-11T21:21:37.333Z,3.77
2018-12-11T21:24:05.109Z,4.30
2018-12-11T21:26:32.924Z,3.50
2018-12-11T21:29:00.685Z,3.37
2018-12-11T21:31:28.196Z,3.30
2018-12-11T21:33:55.691Z,5.10
2018-12-11T21:36:23.178Z,3.13
2018-12-11T21:38:50.705Z,3.63
2018-12-11T21:41:18.190Z,3.07
2018-12-11T21:43:45.745Z,3.93
2018-12-11T21:46:13.235Z,5.03
2018-12-11T21:48:40.729Z,4.80
2018-12-11T21:51:08.261Z,2.97
2018-12-11T21:53:35.869Z,2.80
2018-12-11T21:56:03.463Z,2.67
2018-12-11T21:58:30.960Z,4.50
2018-12-11T22:00:58.731Z,2.27
2018-12-11T22:03:26.529Z,3.10
2018-12-11T22:05:54.486Z,3.47
2018-12-11T22:08:21.979Z,2.30
2018-12-11T22:10:49.486Z,4.10
2018-12-11T22:13:16.986Z,5.87
2018-12-11T22:15:44.509Z,3.80
2018-12-11T22:18:11.993Z,2.50
2018-12-11T22:20:39.477Z,4.10
2018-12-11T22:23:07.076Z,5.00
2018-12-11T22:25:34.565Z,2.77
2018-12-11T22:28:02.086Z,3.47
2018-12-11T22:30:29.573Z,2.03
2018-12-11T22:32:57.069Z,2.03
2018-12-11T22:35:24.584Z,3.60
2018-12-11T22:37:52.087Z,2.20
2018-12-11T22:40:19.582Z,3.87
2018-12-11T22:42:47.097Z,3.37
2018-12-11T22:45:14.597Z,2.60
2018-12-11T22:47:42.085Z,2.20
2018-12-11T22:50:09.699Z,3.77
2018-12-11T22:52:37.190Z,2.43
2018-12-11T22:55:04.865Z,3.40
2018-12-11T22:57:32.356Z,3.03
2018-12-11T22:59:59.847Z,2.83
2018-12-11T23:02:27.429Z,2.30
2018-12-11T23:04:54.912Z,2.43
2018-12-11T23:07:22.422Z,2.83
2018-12-11T23:09:49.954Z,3.93
2018-12-11T23:12:17.451Z,4.57
2018-12-11T23:14:44.977Z,3.10
2018-12-11T23:17:12.781Z,2.07
2018-12-11T23:19:40.266Z,5.90
2018-12-11T23:22:07.775Z,3.20
2018-12-11T23:24:35.350Z,3.53
2018-12-11T23:27:02.954Z,3.33
2018-12-11T23:29:30.781Z,1.70
2018-12-11T23:31:58.297Z,2.47
2018-12-11T23:34:25.789Z,3.27
2018-12-11T23:36:53.398Z,4.50
2018-12-11T23:39:20.902Z,2.40
2018-12-11T23:41:48.389Z,2.90
2018-12-11T23:44:15.904Z,3.07
2018-12-11T23:46:43.692Z,2.20
2018-12-11T23:49:11.462Z,1.93
2018-12-11T23:51:39.329Z,2.00
2018-12-11T23:54:06.833Z,3.47
2018-12-11T23:56:34.341Z,2.60
2018-12-11T23:59:01.834Z,4.40
